ZW-0016 weather

Chete Airport
Matabeleland North Province, Zimbabwe

Public forecast

Using degrees Celsius for public forecast. Weather courtesy of forecast.io.

METAR (pilot weather report)

Report is more than 6 hours old.

Closest report is Choma Airport, 59.7 nm (110.6 km) WNW. Retrieved 2010/07/23 06:00 UTC (9 years ago):

FLCH 230600Z 00903KT CAVOK 12/09

TAF (pilot weather forecast)

Forecast is more than 12 hours old.

Closest forecast is Kariba International Airport, 59.9 nm (111.0 km) ENE. Retrieved 2018/08/24 06:00 UTC (11 months ago):

TAF FVKB 240400Z 2406/2416 27005KT CAVOK